Terminal Aerodrome Forecast
Issued by NWS

Home | Current Version | Previous Version | Text Only | Print | Product List | Glossary On
Versions: 1 2 3 4 5 6 7 8 9 10 11 12 13
000
FTUS43 KDMX 291631 AAA
TAFFOD
TAF AMD
KFOD 291631Z 2917/3012 29011G18KT P6SM SCT050
     FM291800 29017G27KT P6SM BKN050
     FM292100 30018G30KT P6SM VCSH BKN045
     FM300100 30011KT P6SM SCT090=

USA.gov is the U.S. government's official web portal to all federal, state and local government web resources and services.